createdAt,value
2023-06-15T00:01:08.070Z,100.00
2023-06-15T00:03:37.482Z,100.00
2023-06-15T00:06:05.308Z,100.00
2023-06-15T00:08:33.081Z,100.00
2023-06-15T00:11:01.091Z,100.00
2023-06-15T00:13:29.095Z,100.00
2023-06-15T00:15:56.948Z,100.00
2023-06-15T00:18:24.977Z,100.00
2023-06-15T00:20:54.920Z,100.00
2023-06-15T00:23:28.343Z,100.00
2023-06-15T00:25:57.824Z,100.00
2023-06-15T00:28:25.746Z,100.00
2023-06-15T00:30:53.533Z,100.00
2023-06-15T00:33:21.625Z,100.00
2023-06-15T00:35:49.618Z,100.00
2023-06-15T00:38:18.893Z,100.00
2023-06-15T00:40:47.633Z,100.00
2023-06-15T00:43:15.581Z,100.00
2023-06-15T00:45:43.401Z,100.00
2023-06-15T00:48:11.546Z,100.00
2023-06-15T00:50:40.263Z,100.00
2023-06-15T00:53:08.562Z,100.00
2023-06-15T00:55:39.847Z,100.00
2023-06-15T00:58:08.388Z,100.00
2023-06-15T01:00:37.876Z,100.00
2023-06-15T01:03:07.736Z,100.00
2023-06-15T01:05:36.935Z,100.00
2023-06-15T01:08:06.589Z,100.00
2023-06-15T01:10:36.165Z,100.00
2023-06-15T01:13:08.764Z,100.00
2023-06-15T01:15:36.640Z,100.00
2023-06-15T01:18:06.543Z,100.00
2023-06-15T01:20:40.234Z,100.00
2023-06-15T01:23:23.704Z,100.00
2023-06-15T01:26:09.440Z,100.00
2023-06-15T01:28:41.869Z,100.00
2023-06-15T01:31:11.225Z,100.00
2023-06-15T01:33:46.661Z,100.00
2023-06-15T01:36:14.521Z,100.00
2023-06-15T01:38:43.713Z,100.00
2023-06-15T01:41:13.828Z,100.00
2023-06-15T01:43:42.421Z,100.00
2023-06-15T01:46:11.481Z,100.00
2023-06-15T01:48:39.567Z,100.00
2023-06-15T01:51:07.659Z,100.00
2023-06-15T01:53:37.037Z,100.00
2023-06-15T01:56:05.601Z,100.00
2023-06-15T01:58:34.859Z,100.00
2023-06-15T02:01:03.106Z,100.00
2023-06-15T02:03:32.435Z,100.00
2023-06-15T02:06:00.208Z,100.00
2023-06-15T02:08:28.233Z,100.00
2023-06-15T02:10:56.078Z,100.00
2023-06-15T02:13:23.828Z,100.00
2023-06-15T02:15:53.159Z,100.00
2023-06-15T02:18:21.975Z,100.00
2023-06-15T02:20:51.175Z,100.00
2023-06-15T02:23:20.931Z,100.00
2023-06-15T02:25:48.898Z,100.00
2023-06-15T02:28:17.058Z,100.00
2023-06-15T02:30:45.442Z,100.00
2023-06-15T02:33:14.547Z,100.00
2023-06-15T02:35:42.307Z,100.00
2023-06-15T02:38:11.230Z,100.00
2023-06-15T02:40:39.008Z,100.00
2023-06-15T02:43:06.797Z,100.00
2023-06-15T02:45:34.814Z,100.00
2023-06-15T02:48:02.620Z,100.00
2023-06-15T02:50:31.788Z,100.00
2023-06-15T02:52:59.794Z,100.00
2023-06-15T02:55:27.573Z,100.00
2023-06-15T02:57:55.341Z,100.00
2023-06-15T03:00:24.265Z,100.00
2023-06-15T03:02:53.511Z,100.00
2023-06-15T03:05:21.463Z,100.00
2023-06-15T03:07:52.050Z,100.00
2023-06-15T03:10:19.854Z,100.00
2023-06-15T03:12:47.688Z,100.00
2023-06-15T03:15:16.227Z,100.00
2023-06-15T03:17:44.263Z,100.00
2023-06-15T03:20:12.992Z,100.00
2023-06-15T03:22:41.826Z,100.00
2023-06-15T03:25:12.537Z,100.00
2023-06-15T03:27:42.004Z,100.00
2023-06-15T03:30:12.660Z,100.00
2023-06-15T03:32:41.002Z,100.00
2023-06-15T03:35:09.879Z,100.00
2023-06-15T03:37:37.718Z,100.00
2023-06-15T03:40:07.007Z,100.00
2023-06-15T03:42:36.386Z,100.00
2023-06-15T03:45:04.357Z,100.00
2023-06-15T03:47:33.301Z,100.00
2023-06-15T03:50:01.278Z,100.00
2023-06-15T03:52:29.073Z,100.00
2023-06-15T03:54:57.057Z,100.00
2023-06-15T03:57:24.827Z,100.00
2023-06-15T03:59:54.049Z,100.00
2023-06-15T04:02:22.063Z,100.00
2023-06-15T04:04:49.855Z,100.00
2023-06-15T04:07:18.250Z,100.00
2023-06-15T04:09:46.281Z,100.00
2023-06-15T04:12:14.082Z,100.00
2023-06-15T04:14:43.437Z,100.00
2023-06-15T04:17:12.904Z,100.00
2023-06-15T04:19:40.972Z,100.00
2023-06-15T04:22:08.752Z,100.00
2023-06-15T04:24:36.914Z,100.00
2023-06-15T04:27:06.498Z,100.00
2023-06-15T04:29:34.325Z,100.00
2023-06-15T04:32:04.595Z,100.00
2023-06-15T04:34:34.751Z,100.00
2023-06-15T04:37:02.764Z,100.00
2023-06-15T04:39:30.523Z,100.00
2023-06-15T04:41:58.862Z,100.00
2023-06-15T04:44:26.953Z,100.00
2023-06-15T04:46:55.935Z,100.00
2023-06-15T04:49:23.945Z,100.00
2023-06-15T04:51:53.515Z,100.00
2023-06-15T04:54:21.311Z,100.00
2023-06-15T04:56:49.158Z,100.00
2023-06-15T04:59:17.168Z,100.00
2023-06-15T05:01:44.934Z,100.00
2023-06-15T05:04:12.685Z,100.00
2023-06-15T05:06:40.712Z,100.00
2023-06-15T05:09:09.806Z,100.00
2023-06-15T05:11:37.613Z,100.00
2023-06-15T05:14:06.366Z,100.00
2023-06-15T05:16:34.374Z,100.00
2023-06-15T05:19:02.183Z,100.00
2023-06-15T05:21:30.195Z,100.00
2023-06-15T05:23:58.011Z,100.00
2023-06-15T05:26:30.157Z,100.00
2023-06-15T05:28:58.822Z,100.00
2023-06-15T05:31:26.644Z,100.00
2023-06-15T05:33:55.195Z,100.00
2023-06-15T05:36:34.473Z,100.00
2023-06-15T05:39:12.890Z,100.00
2023-06-15T05:41:43.554Z,98.41
2023-06-15T05:44:11.631Z,96.97
2023-06-15T05:46:39.447Z,96.90
2023-06-15T05:49:07.448Z,93.57
2023-06-15T05:51:35.552Z,90.49
2023-06-15T05:54:03.455Z,87.75
2023-06-15T05:56:32.226Z,87.12
2023-06-15T05:59:01.346Z,84.67
2023-06-15T06:01:29.134Z,84.53
2023-06-15T06:03:57.155Z,84.00
2023-06-15T06:06:25.023Z,82.38
2023-06-15T06:08:52.814Z,81.82
2023-06-15T06:11:20.826Z,79.32
2023-06-15T06:13:48.593Z,79.16
2023-06-15T06:16:17.807Z,77.04
2023-06-15T06:18:45.869Z,78.09
2023-06-15T06:21:13.727Z,79.07
2023-06-15T06:23:41.587Z,79.18
2023-06-15T06:26:09.741Z,81.33
2023-06-15T06:28:37.528Z,80.68
2023-06-15T06:31:05.645Z,79.31
2023-06-15T06:33:38.268Z,78.26
2023-06-15T06:36:09.444Z,78.62
2023-06-15T06:38:46.348Z,77.99
2023-06-15T06:41:25.706Z,79.14
2023-06-15T06:43:54.259Z,80.54
2023-06-15T06:46:23.483Z,78.77
2023-06-15T06:49:17.331Z,76.26
2023-06-15T06:51:45.428Z,77.20
2023-06-15T06:54:13.172Z,78.56
2023-06-15T06:56:40.943Z,77.07
2023-06-15T06:59:08.967Z,75.29
2023-06-15T07:01:36.764Z,76.46
2023-06-15T07:04:04.686Z,76.46
2023-06-15T07:06:34.793Z,75.49
2023-06-15T07:09:02.548Z,75.00
2023-06-15T07:11:30.420Z,76.52
2023-06-15T07:13:59.916Z,74.07
2023-06-15T07:16:27.674Z,72.01
2023-06-15T07:18:56.751Z,73.16
2023-06-15T07:21:24.881Z,73.55
2023-06-15T07:23:54.658Z,72.43
2023-06-15T07:26:23.170Z,74.57
2023-06-15T07:28:51.223Z,69.59
2023-06-15T07:31:19.246Z,70.97
2023-06-15T07:33:47.053Z,68.88
2023-06-15T07:36:15.347Z,69.69
2023-06-15T07:38:43.232Z,69.40
2023-06-15T07:41:12.385Z,67.47
2023-06-15T07:43:40.728Z,68.29
2023-06-15T07:46:08.636Z,66.52
2023-06-15T07:48:36.422Z,65.45
2023-06-15T07:51:04.613Z,66.41
2023-06-15T07:53:32.464Z,65.82
2023-06-15T07:56:00.304Z,65.23
2023-06-15T07:58:29.627Z,66.28
2023-06-15T08:00:57.446Z,65.30
2023-06-15T08:03:25.409Z,65.04
2023-06-15T08:05:53.469Z,66.03
2023-06-15T08:08:22.228Z,63.81
2023-06-15T08:10:49.989Z,64.16
2023-06-15T08:13:20.019Z,63.50
2023-06-15T08:15:49.352Z,62.13
2023-06-15T08:18:17.414Z,62.35
2023-06-15T08:20:45.624Z,61.43
2023-06-15T08:23:14.111Z,60.97
2023-06-15T08:25:42.518Z,61.19
2023-06-15T08:28:10.573Z,59.64
2023-06-15T08:30:38.349Z,58.05
2023-06-15T08:33:07.549Z,56.73
2023-06-15T08:35:36.088Z,57.58
2023-06-15T08:38:04.309Z,55.86
2023-06-15T08:40:32.110Z,54.23
2023-06-15T08:43:01.883Z,54.79
2023-06-15T08:45:39.248Z,56.30
2023-06-15T08:48:10.255Z,54.87
2023-06-15T08:50:41.095Z,56.13
2023-06-15T08:53:10.855Z,58.78
2023-06-15T08:55:39.515Z,56.40
2023-06-15T08:58:10.484Z,55.82
2023-06-15T09:00:39.045Z,53.49
2023-06-15T09:03:10.486Z,55.38
2023-06-15T09:05:38.558Z,55.34
2023-06-15T09:08:07.558Z,53.29
2023-06-15T09:10:38.444Z,55.01
2023-06-15T09:13:06.951Z,53.75
2023-06-15T09:15:34.702Z,54.60
2023-06-15T09:18:03.978Z,54.84
2023-06-15T09:20:39.188Z,54.65
2023-06-15T09:23:13.003Z,52.77
2023-06-15T09:25:42.872Z,54.92
2023-06-15T09:28:10.926Z,54.94
2023-06-15T09:30:40.046Z,52.95
2023-06-15T09:33:16.955Z,51.98
2023-06-15T09:35:59.861Z,51.78
2023-06-15T09:38:30.917Z,49.88
2023-06-15T09:41:03.833Z,52.49
2023-06-15T09:43:35.375Z,54.10
2023-06-15T09:46:04.240Z,51.77
2023-06-15T09:48:32.575Z,52.24
2023-06-15T09:51:03.648Z,49.52
2023-06-15T09:53:32.871Z,48.33
2023-06-15T09:56:01.816Z,48.55
2023-06-15T09:58:29.654Z,49.67
2023-06-15T10:00:58.810Z,50.67
2023-06-15T10:03:27.858Z,50.71
2023-06-15T10:06:00.531Z,49.33
2023-06-15T10:08:35.170Z,48.69
2023-06-15T10:11:03.219Z,49.16
2023-06-15T10:13:37.492Z,48.08
2023-06-15T10:16:06.683Z,46.45
2023-06-15T10:18:35.237Z,46.58
2023-06-15T10:21:06.052Z,47.96
2023-06-15T10:23:41.760Z,48.11
2023-06-15T10:26:11.043Z,44.36
2023-06-15T10:28:46.129Z,47.97
2023-06-15T10:31:18.961Z,47.68
2023-06-15T10:33:52.111Z,46.51
2023-06-15T10:36:24.900Z,46.07
2023-06-15T10:39:06.910Z,44.59
2023-06-15T10:41:35.910Z,45.85
2023-06-15T10:44:06.221Z,44.05
2023-06-15T10:46:35.735Z,43.63
2023-06-15T10:49:05.370Z,46.27
2023-06-15T10:51:36.551Z,44.98
2023-06-15T10:54:06.873Z,46.65
2023-06-15T10:56:34.766Z,47.10
2023-06-15T10:59:05.543Z,46.71
2023-06-15T11:01:34.200Z,47.22
2023-06-15T11:04:03.288Z,48.04
2023-06-15T11:06:37.102Z,48.08
2023-06-15T11:09:08.774Z,46.44
2023-06-15T11:11:39.353Z,46.18
2023-06-15T11:14:08.259Z,47.08
2023-06-15T11:16:37.096Z,47.48
2023-06-15T11:19:26.005Z,46.59
2023-06-15T11:22:00.270Z,47.08
2023-06-15T11:24:35.456Z,48.43
2023-06-15T11:27:05.619Z,48.26
2023-06-15T11:29:36.900Z,47.10
2023-06-15T11:32:06.304Z,47.50
2023-06-15T11:34:34.923Z,48.23
2023-06-15T11:37:03.277Z,47.35
2023-06-15T11:39:34.562Z,47.11
2023-06-15T11:42:02.575Z,49.11
2023-06-15T11:44:30.464Z,48.49
2023-06-15T11:47:01.086Z,49.07
2023-06-15T11:49:34.678Z,49.20
2023-06-15T11:52:02.990Z,51.00
2023-06-15T11:54:45.804Z,51.60
2023-06-15T11:57:20.180Z,53.42
2023-06-15T11:59:48.152Z,53.80
2023-06-15T12:02:16.605Z,53.89
2023-06-15T12:04:44.889Z,55.68
2023-06-15T12:07:24.510Z,56.37
2023-06-15T12:10:01.960Z,55.34
2023-06-15T12:12:32.223Z,55.26
2023-06-15T12:15:01.033Z,55.11
2023-06-15T12:17:29.620Z,53.49
2023-06-15T12:20:01.804Z,53.09
2023-06-15T12:22:37.973Z,53.61
2023-06-15T12:25:07.141Z,53.02
2023-06-15T12:27:42.736Z,52.80
2023-06-15T12:30:12.452Z,54.26
2023-06-15T12:32:44.741Z,55.91
2023-06-15T12:35:29.527Z,55.77
2023-06-15T12:37:59.100Z,54.96
2023-06-15T12:40:27.346Z,53.60
2023-06-15T12:43:01.339Z,51.88
2023-06-15T12:45:29.470Z,53.45
2023-06-15T12:47:59.100Z,53.00
2023-06-15T12:50:27.159Z,52.83
2023-06-15T12:52:57.984Z,54.04
2023-06-15T12:55:26.590Z,52.94
2023-06-15T12:57:55.998Z,52.98
2023-06-15T13:00:27.472Z,53.97
2023-06-15T13:02:55.596Z,50.28
2023-06-15T13:05:24.071Z,50.21
2023-06-15T13:07:52.042Z,48.53
2023-06-15T13:10:20.203Z,47.63
2023-06-15T13:12:48.795Z,47.30
2023-06-15T13:15:19.840Z,46.35
2023-06-15T13:17:50.995Z,47.18
2023-06-15T13:20:20.373Z,48.76
2023-06-15T13:22:50.402Z,48.60
2023-06-15T13:25:20.164Z,49.34
2023-06-15T13:27:48.124Z,50.84
2023-06-15T13:30:17.583Z,49.50
2023-06-15T13:32:47.872Z,50.71
2023-06-15T13:35:18.875Z,52.07
2023-06-15T13:37:47.437Z,53.51
2023-06-15T13:40:15.925Z,53.44
2023-06-15T13:42:44.308Z,53.40
2023-06-15T13:45:15.053Z,53.45
2023-06-15T13:47:44.058Z,51.62
2023-06-15T13:50:14.547Z,49.92
2023-06-15T13:52:47.902Z,50.93
2023-06-15T13:55:17.492Z,51.38
2023-06-15T13:57:45.826Z,51.22
2023-06-15T14:00:15.221Z,50.36
2023-06-15T14:02:44.470Z,51.75
2023-06-15T14:05:14.320Z,51.83
2023-06-15T14:07:43.879Z,52.91
2023-06-15T14:10:12.496Z,52.54
2023-06-15T14:12:40.533Z,52.18
2023-06-15T14:15:10.490Z,51.71
2023-06-15T14:17:39.439Z,51.41
2023-06-15T14:20:09.310Z,52.67
2023-06-15T14:22:37.271Z,53.04
2023-06-15T14:25:07.305Z,51.82
2023-06-15T14:27:35.085Z,49.02
2023-06-15T14:30:03.108Z,47.15
2023-06-15T14:32:31.485Z,47.81
2023-06-15T14:34:59.482Z,46.38
2023-06-15T14:37:27.415Z,48.01
2023-06-15T14:39:55.461Z,48.74
2023-06-15T14:42:28.237Z,48.64
2023-06-15T14:44:57.218Z,48.31
2023-06-15T14:47:25.073Z,49.44
2023-06-15T14:49:53.018Z,50.08
2023-06-15T14:52:21.072Z,50.50
2023-06-15T14:54:49.069Z,49.68
2023-06-15T14:57:18.006Z,48.71
2023-06-15T14:59:47.713Z,47.50
2023-06-15T15:02:16.014Z,47.12
2023-06-15T15:04:43.868Z,46.80
2023-06-15T15:07:12.013Z,46.69
2023-06-15T15:09:39.781Z,46.94
2023-06-15T15:12:08.824Z,45.66
2023-06-15T15:14:36.958Z,43.49
2023-06-15T15:17:06.879Z,44.04
2023-06-15T15:19:34.775Z,44.77
2023-06-15T15:22:03.153Z,44.78
2023-06-15T15:24:30.972Z,45.04
2023-06-15T15:26:58.781Z,43.55
2023-06-15T15:29:26.784Z,43.28
2023-06-15T15:31:54.535Z,42.46
2023-06-15T15:34:23.808Z,42.55
2023-06-15T15:36:51.905Z,43.19
2023-06-15T15:39:19.821Z,43.83
2023-06-15T15:41:48.294Z,44.18
2023-06-15T15:44:16.271Z,43.17
2023-06-15T15:46:44.272Z,45.04
2023-06-15T15:49:12.123Z,42.44
2023-06-15T15:51:41.480Z,41.44
2023-06-15T15:54:12.077Z,40.81
2023-06-15T15:56:40.171Z,39.63
2023-06-15T15:59:08.432Z,42.03
2023-06-15T16:01:36.284Z,40.73
2023-06-15T16:04:04.601Z,40.40
2023-06-15T16:06:32.391Z,40.59
2023-06-15T16:09:01.520Z,40.20
2023-06-15T16:11:29.499Z,40.55
2023-06-15T16:13:57.518Z,41.39
2023-06-15T16:16:29.362Z,42.88
2023-06-15T16:18:57.925Z,42.33
2023-06-15T16:21:26.053Z,42.16
2023-06-15T16:23:54.054Z,41.54
2023-06-15T16:26:23.593Z,41.63
2023-06-15T16:28:51.492Z,41.11
2023-06-15T16:31:19.284Z,42.38
2023-06-15T16:33:47.321Z,40.60
2023-06-15T16:36:16.692Z,40.85
2023-06-15T16:38:44.493Z,40.28
2023-06-15T16:41:12.750Z,39.71
2023-06-15T16:43:42.881Z,40.29
2023-06-15T16:46:11.080Z,41.37
2023-06-15T16:48:39.226Z,40.94
2023-06-15T16:51:07.050Z,40.98
2023-06-15T16:53:34.864Z,41.64
2023-06-15T16:56:02.970Z,41.02
2023-06-15T16:58:31.666Z,40.10
2023-06-15T17:01:00.964Z,40.99
2023-06-15T17:03:29.179Z,40.95
2023-06-15T17:05:57.201Z,42.08
2023-06-15T17:08:25.056Z,40.95
2023-06-15T17:10:53.060Z,41.43
2023-06-15T17:13:20.977Z,41.55
2023-06-15T17:15:48.859Z,41.48
2023-06-15T17:18:18.334Z,41.89
2023-06-15T17:20:46.112Z,42.12
2023-06-15T17:23:13.879Z,42.62
2023-06-15T17:25:41.916Z,43.16
2023-06-15T17:28:09.704Z,42.83
2023-06-15T17:30:37.552Z,42.73
2023-06-15T17:33:05.631Z,43.02
2023-06-15T17:35:34.799Z,42.65
2023-06-15T17:38:02.603Z,41.99
2023-06-15T17:40:30.799Z,42.30
2023-06-15T17:42:58.593Z,42.11
2023-06-15T17:45:27.790Z,41.99
2023-06-15T17:47:55.904Z,41.99
2023-06-15T17:50:23.744Z,42.61
2023-06-15T17:52:52.886Z,41.99
2023-06-15T17:55:21.039Z,42.11
2023-06-15T17:57:48.821Z,41.43
2023-06-15T18:00:17.971Z,42.11
2023-06-15T18:02:46.305Z,42.27
2023-06-15T18:05:14.207Z,42.95
2023-06-15T18:07:42.029Z,43.34
2023-06-15T18:10:11.801Z,44.02
2023-06-15T18:12:39.569Z,44.14
2023-06-15T18:15:08.399Z,44.20
2023-06-15T18:17:36.447Z,44.65
2023-06-15T18:20:04.532Z,44.78
2023-06-15T18:22:32.289Z,44.57
2023-06-15T18:25:00.369Z,44.80
2023-06-15T18:27:30.174Z,45.10
2023-06-15T18:30:05.965Z,45.06
2023-06-15T18:32:35.600Z,45.27
2023-06-15T18:35:04.619Z,45.29
2023-06-15T18:37:32.440Z,45.41
2023-06-15T18:40:00.635Z,45.40
2023-06-15T18:42:29.749Z,45.72
2023-06-15T18:44:57.544Z,45.90
2023-06-15T18:47:26.448Z,46.37
2023-06-15T18:49:54.358Z,46.49
2023-06-15T18:52:22.314Z,46.78
2023-06-15T18:54:50.413Z,47.03
2023-06-15T18:57:18.451Z,47.35
2023-06-15T18:59:48.165Z,47.75
2023-06-15T19:02:18.317Z,47.95
2023-06-15T19:04:46.610Z,50.96
2023-06-15T19:07:14.553Z,52.69
2023-06-15T19:09:42.804Z,52.61
2023-06-15T19:12:12.403Z,52.95
2023-06-15T19:14:40.616Z,53.83
2023-06-15T19:17:11.209Z,54.31
2023-06-15T19:19:39.993Z,54.41
2023-06-15T19:22:08.574Z,54.96
2023-06-15T19:24:36.441Z,56.88
2023-06-15T19:27:04.687Z,57.14
2023-06-15T19:29:33.858Z,58.76
2023-06-15T19:32:01.800Z,59.51
2023-06-15T19:34:31.115Z,59.71
2023-06-15T19:36:59.150Z,60.20
2023-06-15T19:39:27.291Z,61.29
2023-06-15T19:41:55.161Z,62.15
2023-06-15T19:44:23.211Z,62.62
2023-06-15T19:46:51.900Z,63.47
2023-06-15T19:49:20.143Z,65.04
2023-06-15T19:51:49.830Z,66.31
2023-06-15T19:54:17.826Z,66.31
2023-06-15T19:56:45.785Z,63.76
2023-06-15T19:59:13.776Z,62.50
2023-06-15T20:01:42.332Z,61.99
2023-06-15T20:04:10.372Z,60.74
2023-06-15T20:06:38.507Z,60.68
2023-06-15T20:09:07.879Z,60.33
2023-06-15T20:11:36.324Z,59.14
2023-06-15T20:14:04.911Z,60.10
2023-06-15T20:16:34.756Z,59.72
2023-06-15T20:19:02.710Z,58.88
2023-06-15T20:21:30.796Z,57.91
2023-06-15T20:23:58.728Z,57.79
2023-06-15T20:26:30.123Z,58.24
2023-06-15T20:28:58.726Z,57.51
2023-06-15T20:31:26.646Z,57.58
2023-06-15T20:33:55.187Z,57.60
2023-06-15T20:36:23.381Z,57.25
2023-06-15T20:38:51.707Z,57.11
2023-06-15T20:41:19.487Z,57.19
2023-06-15T20:43:48.915Z,57.66
2023-06-15T20:46:19.819Z,58.01
2023-06-15T20:48:49.795Z,58.43
2023-06-15T20:51:17.563Z,58.17
2023-06-15T20:53:45.321Z,58.54
2023-06-15T20:56:13.493Z,60.04
2023-06-15T20:58:41.307Z,59.52
2023-06-15T21:01:10.563Z,59.85
2023-06-15T21:03:38.739Z,59.73
2023-06-15T21:06:06.882Z,59.94
2023-06-15T21:08:35.762Z,59.75
2023-06-15T21:11:04.622Z,59.00
2023-06-15T21:13:34.677Z,59.23
2023-06-15T21:16:03.722Z,58.96
2023-06-15T21:18:35.354Z,59.76
2023-06-15T21:21:04.097Z,59.68
2023-06-15T21:23:33.816Z,60.20
2023-06-15T21:26:02.057Z,61.25
2023-06-15T21:28:29.882Z,62.00
2023-06-15T21:30:57.865Z,63.65
2023-06-15T21:33:25.628Z,64.93
2023-06-15T21:35:54.734Z,64.75
2023-06-15T21:38:23.497Z,66.38
2023-06-15T21:40:51.649Z,66.77
2023-06-15T21:43:19.448Z,67.50
2023-06-15T21:45:48.872Z,68.13
2023-06-15T21:48:16.714Z,68.88
2023-06-15T21:50:44.624Z,69.47
2023-06-15T21:53:13.989Z,69.91
2023-06-15T21:55:41.861Z,70.32
2023-06-15T21:58:10.818Z,70.36
2023-06-15T22:00:38.850Z,70.72
2023-06-15T22:03:07.166Z,71.30
2023-06-15T22:05:34.960Z,71.53
2023-06-15T22:08:03.203Z,72.99
2023-06-15T22:10:33.280Z,74.05
2023-06-15T22:13:05.982Z,74.94
2023-06-15T22:15:34.299Z,75.20
2023-06-15T22:18:02.629Z,75.28
2023-06-15T22:20:31.107Z,75.39
2023-06-15T22:22:59.127Z,76.12
2023-06-15T22:25:27.554Z,77.51
2023-06-15T22:27:56.699Z,77.53
2023-06-15T22:30:24.697Z,77.79
2023-06-15T22:32:54.582Z,79.29
2023-06-15T22:35:24.284Z,80.24
2023-06-15T22:37:52.330Z,80.53
2023-06-15T22:40:20.364Z,80.63
2023-06-15T22:42:48.418Z,80.20
2023-06-15T22:45:17.905Z,80.37
2023-06-15T22:47:45.897Z,81.84
2023-06-15T22:50:15.382Z,82.83
2023-06-15T22:52:43.517Z,84.05
2023-06-15T22:55:11.668Z,84.70
2023-06-15T22:57:39.457Z,85.29
2023-06-15T23:00:11.132Z,85.89
2023-06-15T23:02:40.314Z,87.08
2023-06-15T23:05:09.517Z,88.18
2023-06-15T23:07:43.353Z,89.31
2023-06-15T23:10:13.834Z,90.53
2023-06-15T23:12:51.685Z,91.91
2023-06-15T23:15:20.705Z,92.71
2023-06-15T23:17:50.223Z,94.03
2023-06-15T23:20:19.374Z,93.90
2023-06-15T23:22:52.528Z,95.10
2023-06-15T23:25:20.803Z,95.04
2023-06-15T23:27:49.247Z,94.56
2023-06-15T23:30:17.589Z,95.09
2023-06-15T23:32:45.826Z,95.06
2023-06-15T23:35:15.181Z,96.31
2023-06-15T23:37:43.262Z,96.80
2023-06-15T23:40:11.986Z,97.18
2023-06-15T23:42:39.737Z,98.20
2023-06-15T23:45:08.751Z,98.54
2023-06-15T23:47:36.516Z,98.69
2023-06-15T23:50:04.749Z,98.66
2023-06-15T23:52:34.133Z,99.42
2023-06-15T23:55:02.072Z,100.00
2023-06-15T23:57:29.832Z,100.00
2023-06-15T23:59:57.846Z,100.00
